createdAt,value
2023-05-25T00:01:43.797Z,98149.41
2023-05-25T00:04:17.310Z,98152.44
2023-05-25T00:06:45.488Z,98154.25
2023-05-25T00:09:13.373Z,98153.56
2023-05-25T00:11:40.929Z,98156.09
2023-05-25T00:14:08.678Z,98147.75
2023-05-25T00:16:38.001Z,98143.44
2023-05-25T00:19:06.974Z,98140.63
2023-05-25T00:21:38.139Z,98147.25
2023-05-25T00:24:06.181Z,98139.56
2023-05-25T00:26:33.790Z,98145.09
2023-05-25T00:29:01.371Z,98141.91
2023-05-25T00:31:29.805Z,98144.72
2023-05-25T00:33:57.484Z,98145.56
2023-05-25T00:36:25.165Z,98148.38
2023-05-25T00:38:54.072Z,98149.03
2023-05-25T00:41:22.480Z,98152.19
2023-05-25T00:43:50.011Z,98148.00
2023-05-25T00:46:17.881Z,98143.81
2023-05-25T00:48:46.577Z,98149.63
2023-05-25T00:51:15.241Z,98147.47
2023-05-25T00:53:42.829Z,98139.38
2023-05-25T00:56:17.665Z,98143.03
2023-05-25T00:58:45.936Z,98146.00
2023-05-25T01:01:15.190Z,98144.81
2023-05-25T01:03:45.655Z,98148.00
2023-05-25T01:06:16.056Z,98144.50
2023-05-25T01:08:46.735Z,98144.81
2023-05-25T01:11:21.010Z,98136.66
2023-05-25T01:13:49.371Z,98134.69
2023-05-25T01:16:17.854Z,98129.69
2023-05-25T01:18:45.428Z,98136.13
2023-05-25T01:21:20.198Z,98132.84
2023-05-25T01:23:52.414Z,98134.72
2023-05-25T01:26:21.712Z,98133.06
2023-05-25T01:28:52.833Z,98138.28
2023-05-25T01:31:23.036Z,98139.06
2023-05-25T01:33:51.845Z,98138.75
2023-05-25T01:36:21.153Z,98132.97
2023-05-25T01:38:48.896Z,98134.94
2023-05-25T01:41:16.602Z,98134.31
2023-05-25T01:43:45.393Z,98144.53
2023-05-25T01:46:16.834Z,98135.03
2023-05-25T01:48:53.166Z,98133.78
2023-05-25T01:51:27.322Z,98131.06
2023-05-25T01:53:59.356Z,98131.06
2023-05-25T01:56:30.071Z,98142.41
2023-05-25T01:58:58.998Z,98139.09
2023-05-25T02:01:27.440Z,98141.53
2023-05-25T02:03:55.428Z,98143.69
2023-05-25T02:06:24.292Z,98141.56
2023-05-25T02:08:51.808Z,98151.47
2023-05-25T02:11:20.066Z,98151.94
2023-05-25T02:13:47.661Z,98150.44
2023-05-25T02:16:15.330Z,98153.00
2023-05-25T02:18:46.053Z,98158.22
2023-05-25T02:21:13.833Z,98160.81
2023-05-25T02:23:42.705Z,98159.84
2023-05-25T02:26:10.457Z,98162.41
2023-05-25T02:28:38.965Z,98165.41
2023-05-25T02:31:06.673Z,98162.13
2023-05-25T02:33:34.326Z,98166.75
2023-05-25T02:36:01.908Z,98150.69
2023-05-25T02:38:29.461Z,98150.13
2023-05-25T02:40:58.711Z,98155.66
2023-05-25T02:43:26.307Z,98153.09
2023-05-25T02:45:54.321Z,98161.66
2023-05-25T02:48:22.858Z,98149.97
2023-05-25T02:50:50.640Z,98163.53
2023-05-25T02:53:18.182Z,98164.22
2023-05-25T02:55:48.564Z,98167.25
2023-05-25T02:58:21.129Z,98170.75
2023-05-25T03:01:10.583Z,98171.81
2023-05-25T03:03:43.191Z,98173.31
2023-05-25T03:06:12.923Z,98172.47
2023-05-25T03:08:40.837Z,98174.19
2023-05-25T03:11:08.672Z,98177.09
2023-05-25T03:13:38.131Z,98176.06
2023-05-25T03:16:07.210Z,98177.50
2023-05-25T03:18:35.453Z,98181.88
2023-05-25T03:21:03.660Z,98185.50
2023-05-25T03:23:32.062Z,98183.47
2023-05-25T03:26:00.694Z,98188.97
2023-05-25T03:28:28.886Z,98177.84
2023-05-25T03:30:58.140Z,98185.50
2023-05-25T03:33:25.725Z,98184.16
2023-05-25T03:35:53.429Z,98190.81
2023-05-25T03:38:21.027Z,98192.66
2023-05-25T03:40:48.929Z,98193.25
2023-05-25T03:43:16.658Z,98191.94
2023-05-25T03:45:47.533Z,98199.66
2023-05-25T03:48:16.611Z,98200.13
2023-05-25T03:50:44.167Z,98207.09
2023-05-25T03:53:11.896Z,98208.03
2023-05-25T03:55:39.915Z,98219.50
2023-05-25T03:58:09.967Z,98226.31
2023-05-25T04:00:37.574Z,98226.94
2023-05-25T04:03:06.913Z,98230.28
2023-05-25T04:05:36.948Z,98233.91
2023-05-25T04:08:04.578Z,98231.78
2023-05-25T04:10:32.155Z,98245.94
2023-05-25T04:13:01.373Z,98234.66
2023-05-25T04:15:29.121Z,98233.31
2023-05-25T04:18:20.496Z,98229.28
2023-05-25T04:20:50.432Z,98235.34
2023-05-25T04:23:21.596Z,98237.16
2023-05-25T04:25:51.736Z,98234.22
2023-05-25T04:28:19.706Z,98239.44
2023-05-25T04:31:00.186Z,98229.28
2023-05-25T04:33:46.260Z,98236.91
2023-05-25T04:36:22.294Z,98242.66
2023-05-25T04:38:52.187Z,98232.31
2023-05-25T04:41:20.094Z,98232.00
2023-05-25T04:44:07.976Z,98238.22
2023-05-25T04:46:40.765Z,98237.25
2023-05-25T04:49:14.064Z,98235.44
2023-05-25T04:51:43.050Z,98232.00
2023-05-25T04:54:11.121Z,98232.03
2023-05-25T04:56:39.556Z,98230.28
2023-05-25T04:59:07.222Z,98228.97
2023-05-25T05:01:40.476Z,98232.91
2023-05-25T05:04:08.973Z,98231.75
2023-05-25T05:06:36.972Z,98221.78
2023-05-25T05:09:06.662Z,98227.84
2023-05-25T05:11:34.305Z,98216.16
2023-05-25T05:14:01.909Z,98226.91
2023-05-25T05:16:34.950Z,98229.84
2023-05-25T05:19:02.714Z,98232.69
2023-05-25T05:21:30.715Z,98232.53
2023-05-25T05:23:58.320Z,98227.09
2023-05-25T05:26:27.772Z,98230.94
2023-05-25T05:28:55.601Z,98239.94
2023-05-25T05:31:24.240Z,98239.28
2023-05-25T05:33:51.901Z,98243.31
2023-05-25T05:36:19.989Z,98239.00
2023-05-25T05:38:47.584Z,98246.38
2023-05-25T05:41:15.322Z,98236.06
2023-05-25T05:43:50.091Z,98240.25
2023-05-25T05:46:18.519Z,98243.13
2023-05-25T05:48:46.154Z,98243.75
2023-05-25T05:51:14.433Z,98248.47
2023-05-25T05:53:42.024Z,98237.22
2023-05-25T05:56:18.061Z,98236.25
2023-05-25T05:58:48.772Z,98246.56
2023-05-25T06:01:18.046Z,98235.44
2023-05-25T06:03:47.497Z,98238.41
2023-05-25T06:06:15.977Z,98240.56
2023-05-25T06:08:44.230Z,98236.22
2023-05-25T06:11:12.618Z,98232.53
2023-05-25T06:13:40.957Z,98235.50
2023-05-25T06:16:08.894Z,98239.19
2023-05-25T06:18:38.491Z,98241.56
2023-05-25T06:21:06.985Z,98243.66
2023-05-25T06:23:34.601Z,98252.44
2023-05-25T06:26:05.050Z,98242.56
2023-05-25T06:28:33.272Z,98236.00
2023-05-25T06:31:00.857Z,98241.25
2023-05-25T06:33:31.755Z,98245.66
2023-05-25T06:36:01.613Z,98243.13
2023-05-25T06:38:29.753Z,98252.66
2023-05-25T06:40:57.357Z,98247.47
2023-05-25T06:43:24.900Z,98243.47
2023-05-25T06:46:09.777Z,98245.56
2023-05-25T06:48:40.166Z,98248.38
2023-05-25T06:51:09.150Z,98237.69
2023-05-25T06:53:36.668Z,98230.06
2023-05-25T06:56:04.590Z,98229.53
2023-05-25T06:58:32.096Z,98238.28
2023-05-25T07:01:01.104Z,98241.13
2023-05-25T07:03:28.854Z,98230.06
2023-05-25T07:05:59.317Z,98238.72
2023-05-25T07:08:28.252Z,98235.81
2023-05-25T07:10:55.999Z,98242.34
2023-05-25T07:13:23.683Z,98246.84
2023-05-25T07:15:52.964Z,98243.25
2023-05-25T07:18:20.562Z,98243.84
2023-05-25T07:20:48.942Z,98239.16
2023-05-25T07:23:16.538Z,98240.03
2023-05-25T07:25:46.242Z,98235.47
2023-05-25T07:28:14.228Z,98225.75
2023-05-25T07:30:41.944Z,98226.91
2023-05-25T07:33:11.456Z,98226.78
2023-05-25T07:35:39.243Z,98231.59
2023-05-25T07:38:06.793Z,98234.81
2023-05-25T07:40:34.384Z,98234.03
2023-05-25T07:43:03.292Z,98232.41
2023-05-25T07:45:30.867Z,98237.81
2023-05-25T07:47:58.448Z,98234.97
2023-05-25T07:50:26.230Z,98229.22
2023-05-25T07:52:53.772Z,98240.19
2023-05-25T07:55:21.336Z,98242.91
2023-05-25T07:57:48.935Z,98246.00
2023-05-25T08:00:19.117Z,98251.56
2023-05-25T08:02:46.822Z,98249.28
2023-05-25T08:05:14.598Z,98251.34
2023-05-25T08:07:43.023Z,98246.16
2023-05-25T08:10:11.249Z,98244.91
2023-05-25T08:12:48.898Z,98254.19
2023-05-25T08:15:19.310Z,98252.66
2023-05-25T08:17:48.045Z,98251.41
2023-05-25T08:20:15.693Z,98251.25
2023-05-25T08:22:43.768Z,98251.13
2023-05-25T08:25:11.542Z,98252.47
2023-05-25T08:27:39.102Z,98249.31
2023-05-25T08:30:08.100Z,98256.25
2023-05-25T08:32:37.123Z,98259.47
2023-05-25T08:35:05.101Z,98251.69
2023-05-25T08:37:33.313Z,98249.53
2023-05-25T08:40:07.806Z,98253.94
2023-05-25T08:42:35.418Z,98260.44
2023-05-25T08:45:02.999Z,98267.25
2023-05-25T08:47:32.985Z,98251.00
2023-05-25T08:50:04.086Z,98260.31
2023-05-25T08:52:34.225Z,98263.13
2023-05-25T08:55:05.048Z,98259.41
2023-05-25T08:57:35.933Z,98257.47
2023-05-25T09:00:07.814Z,98257.63
2023-05-25T09:02:40.142Z,98274.47
2023-05-25T09:05:09.655Z,98262.56
2023-05-25T09:07:37.557Z,98265.13
2023-05-25T09:10:06.006Z,98274.88
2023-05-25T09:12:33.761Z,98263.78
2023-05-25T09:15:01.409Z,98265.50
2023-05-25T09:17:29.206Z,98266.34
2023-05-25T09:19:57.115Z,98266.84
2023-05-25T09:22:26.173Z,98271.19
2023-05-25T09:24:55.036Z,98262.13
2023-05-25T09:27:24.013Z,98267.28
2023-05-25T09:29:52.389Z,98264.66
2023-05-25T09:32:20.770Z,98263.75
2023-05-25T09:34:48.658Z,98270.41
2023-05-25T09:37:19.431Z,98268.06
2023-05-25T09:39:49.012Z,98269.72
2023-05-25T09:42:17.961Z,98275.84
2023-05-25T09:44:45.861Z,98275.66
2023-05-25T09:47:16.652Z,98278.38
2023-05-25T09:49:44.557Z,98272.13
2023-05-25T09:52:13.108Z,98271.41
2023-05-25T09:54:40.649Z,98270.09
2023-05-25T09:57:09.532Z,98269.47
2023-05-25T09:59:37.161Z,98274.63
2023-05-25T10:02:05.148Z,98282.16
2023-05-25T10:04:32.773Z,98282.44
2023-05-25T10:07:01.841Z,98281.25
2023-05-25T10:09:30.294Z,98283.81
2023-05-25T10:11:58.710Z,98284.72
2023-05-25T10:14:29.874Z,98283.31
2023-05-25T10:16:59.631Z,98282.97
2023-05-25T10:19:37.524Z,98292.78
2023-05-25T10:22:08.275Z,98289.63
2023-05-25T10:24:39.968Z,98289.78
2023-05-25T10:27:22.503Z,98283.66
2023-05-25T10:29:57.164Z,98289.72
2023-05-25T10:32:25.477Z,98283.13
2023-05-25T10:34:53.800Z,98289.00
2023-05-25T10:37:21.932Z,98283.09
2023-05-25T10:39:50.926Z,98287.06
2023-05-25T10:42:19.427Z,98278.09
2023-05-25T10:44:47.336Z,98282.22
2023-05-25T10:47:16.937Z,98280.72
2023-05-25T10:49:55.101Z,98287.41
2023-05-25T10:52:23.384Z,98280.41
2023-05-25T10:54:50.959Z,98282.19
2023-05-25T10:57:24.010Z,98291.34
2023-05-25T10:59:54.979Z,98280.50
2023-05-25T11:02:24.373Z,98285.09
2023-05-25T11:04:54.824Z,98286.47
2023-05-25T11:07:22.858Z,98285.19
2023-05-25T11:09:59.146Z,98279.97
2023-05-25T11:12:27.880Z,98288.56
2023-05-25T11:15:15.162Z,98282.19
2023-05-25T11:17:48.847Z,98277.53
2023-05-25T11:20:23.934Z,98282.50
2023-05-25T11:22:53.074Z,98283.00
2023-05-25T11:25:37.365Z,98279.34
2023-05-25T11:28:05.966Z,98280.81
2023-05-25T11:30:33.713Z,98279.44
2023-05-25T11:33:04.685Z,98274.06
2023-05-25T11:35:37.028Z,98269.31
2023-05-25T11:38:08.267Z,98270.34
2023-05-25T11:40:39.311Z,98273.75
2023-05-25T11:43:07.812Z,98275.63
2023-05-25T11:45:37.282Z,98260.75
2023-05-25T11:48:07.048Z,98265.38
2023-05-25T11:50:34.729Z,98265.38
2023-05-25T11:53:06.002Z,98262.31
2023-05-25T11:55:33.730Z,98256.22
2023-05-25T11:58:01.312Z,98249.06
2023-05-25T12:00:29.224Z,98259.28
2023-05-25T12:02:57.530Z,98248.06
2023-05-25T12:05:26.576Z,98251.75
2023-05-25T12:07:54.186Z,98252.47
2023-05-25T12:10:21.751Z,98246.94
2023-05-25T12:12:51.055Z,98248.19
2023-05-25T12:15:22.000Z,98259.16
2023-05-25T12:17:50.393Z,98244.91
2023-05-25T12:20:18.887Z,98250.53
2023-05-25T12:22:48.327Z,98246.31
2023-05-25T12:25:20.188Z,98246.72
2023-05-25T12:27:47.797Z,98248.31
2023-05-25T12:30:15.647Z,98242.94
2023-05-25T12:32:54.641Z,98240.03
2023-05-25T12:35:22.568Z,98244.41
2023-05-25T12:37:51.615Z,98240.66
2023-05-25T12:40:20.902Z,98236.47
2023-05-25T12:42:57.078Z,98242.44
2023-05-25T12:45:24.970Z,98234.56
2023-05-25T12:47:52.560Z,98231.59
2023-05-25T12:50:20.354Z,98235.06
2023-05-25T12:52:48.930Z,98234.00
2023-05-25T12:55:22.043Z,98237.75
2023-05-25T12:57:52.558Z,98235.38
2023-05-25T13:00:22.047Z,98233.34
2023-05-25T13:02:50.659Z,98235.88
2023-05-25T13:05:19.828Z,98224.53
2023-05-25T13:07:47.483Z,98230.78
2023-05-25T13:10:15.732Z,98231.75
2023-05-25T13:12:44.805Z,98224.09
2023-05-25T13:15:13.189Z,98226.47
2023-05-25T13:17:43.505Z,98222.59
2023-05-25T13:20:13.630Z,98213.69
2023-05-25T13:22:43.528Z,98210.97
2023-05-25T13:25:11.795Z,98206.09
2023-05-25T13:27:41.230Z,98203.75
2023-05-25T13:30:11.841Z,98201.59
2023-05-25T13:32:39.507Z,98209.59
2023-05-25T13:35:08.035Z,98212.88
2023-05-25T13:37:35.615Z,98219.50
2023-05-25T13:40:03.902Z,98202.41
2023-05-25T13:42:32.304Z,98206.66
2023-05-25T13:44:59.831Z,98199.03
2023-05-25T13:47:29.302Z,98206.47
2023-05-25T13:49:56.902Z,98204.75
2023-05-25T13:52:24.467Z,98195.38
2023-05-25T13:54:52.078Z,98213.25
2023-05-25T13:57:19.681Z,98196.13
2023-05-25T13:59:47.232Z,98195.63
2023-05-25T14:02:15.085Z,98196.91
2023-05-25T14:04:44.004Z,98196.56
2023-05-25T14:07:12.298Z,98198.97
2023-05-25T14:09:39.852Z,98185.59
2023-05-25T14:12:07.809Z,98193.84
2023-05-25T14:14:35.562Z,98185.88
2023-05-25T14:17:03.123Z,98184.81
2023-05-25T14:19:31.013Z,98191.84
2023-05-25T14:22:12.572Z,98192.66
2023-05-25T14:24:42.070Z,98185.66
2023-05-25T14:27:09.768Z,98184.47
2023-05-25T14:29:37.349Z,98181.28
2023-05-25T14:32:05.527Z,98178.81
2023-05-25T14:34:33.033Z,98186.72
2023-05-25T14:37:01.930Z,98189.75
2023-05-25T14:39:29.802Z,98182.59
2023-05-25T14:41:57.335Z,98183.13
2023-05-25T14:44:24.919Z,98183.06
2023-05-25T14:46:52.485Z,98190.16
2023-05-25T14:49:21.378Z,98180.28
2023-05-25T14:51:48.937Z,98180.13
2023-05-25T14:54:17.808Z,98179.69
2023-05-25T14:56:45.412Z,98177.22
2023-05-25T14:59:12.955Z,98176.59
2023-05-25T15:01:40.548Z,98179.81
2023-05-25T15:04:09.053Z,98180.28
2023-05-25T15:06:39.303Z,98180.34
2023-05-25T15:09:06.930Z,98182.69
2023-05-25T15:11:36.027Z,98174.19
2023-05-25T15:14:03.583Z,98173.75
2023-05-25T15:16:31.294Z,98169.91
2023-05-25T15:18:58.884Z,98172.47
2023-05-25T15:21:26.664Z,98174.03
2023-05-25T15:23:54.253Z,98174.16
2023-05-25T15:26:21.785Z,98164.06
2023-05-25T15:28:50.700Z,98173.50
2023-05-25T15:31:18.415Z,98169.53
2023-05-25T15:33:56.198Z,98173.75
2023-05-25T15:36:25.684Z,98167.41
2023-05-25T15:38:53.236Z,98164.09
2023-05-25T15:41:21.056Z,98169.03
2023-05-25T15:43:52.266Z,98175.75
2023-05-25T15:46:19.942Z,98173.44
2023-05-25T15:48:47.482Z,98165.94
2023-05-25T15:51:15.190Z,98173.97
2023-05-25T15:53:42.709Z,98182.06
2023-05-25T15:56:10.396Z,98173.88
2023-05-25T15:58:37.929Z,98179.50
2023-05-25T16:01:06.926Z,98176.06
2023-05-25T16:03:34.561Z,98173.72
2023-05-25T16:06:02.864Z,98167.81
2023-05-25T16:08:30.466Z,98167.25
2023-05-25T16:10:58.110Z,98179.97
2023-05-25T16:13:25.730Z,98177.13
2023-05-25T16:15:53.488Z,98177.47
2023-05-25T16:18:22.562Z,98182.88
2023-05-25T16:20:55.798Z,98190.78
2023-05-25T16:23:23.474Z,98180.91
2023-05-25T16:25:51.088Z,98184.31
2023-05-25T16:28:18.708Z,98182.06
2023-05-25T16:30:46.652Z,98178.78
2023-05-25T16:33:14.252Z,98174.19
2023-05-25T16:35:43.498Z,98173.47
2023-05-25T16:38:11.545Z,98174.91
2023-05-25T16:40:39.082Z,98171.97
2023-05-25T16:43:06.798Z,98167.59
2023-05-25T16:45:34.402Z,98178.28
2023-05-25T16:48:02.255Z,98180.66
2023-05-25T16:50:29.920Z,98171.25
2023-05-25T16:52:58.773Z,98169.69
2023-05-25T16:55:26.369Z,98166.53
2023-05-25T16:57:53.905Z,98170.88
2023-05-25T17:00:22.186Z,98157.09
2023-05-25T17:02:49.772Z,98168.03
2023-05-25T17:05:17.378Z,98173.31
2023-05-25T17:07:44.957Z,98163.81
2023-05-25T17:10:13.986Z,98170.00
2023-05-25T17:12:41.544Z,98168.13
2023-05-25T17:15:11.141Z,98160.84
2023-05-25T17:17:38.781Z,98171.31
2023-05-25T17:20:07.086Z,98160.59
2023-05-25T17:22:34.948Z,98163.50
2023-05-25T17:25:03.421Z,98161.50
2023-05-25T17:27:32.384Z,98162.66
2023-05-25T17:29:59.995Z,98168.50
2023-05-25T17:32:27.575Z,98164.63
2023-05-25T17:34:55.157Z,98171.50
2023-05-25T17:37:22.688Z,98156.56
2023-05-25T17:39:50.192Z,98160.53
2023-05-25T17:42:17.865Z,98161.97
2023-05-25T17:44:46.733Z,98155.53
2023-05-25T17:47:14.342Z,98162.19
2023-05-25T17:49:41.937Z,98163.50
2023-05-25T17:52:09.737Z,98165.38
2023-05-25T17:54:37.313Z,98162.97
2023-05-25T17:57:04.982Z,98162.25
2023-05-25T17:59:32.552Z,98165.63
2023-05-25T18:02:01.515Z,98171.50
2023-05-25T18:04:29.257Z,98170.06
2023-05-25T18:06:56.809Z,98172.41
2023-05-25T18:09:24.441Z,98175.94
2023-05-25T18:11:53.691Z,98169.97
2023-05-25T18:14:22.823Z,98176.88
2023-05-25T18:16:50.438Z,98177.34
2023-05-25T18:19:20.491Z,98175.31
2023-05-25T18:21:48.021Z,98170.81
2023-05-25T18:24:15.724Z,98177.47
2023-05-25T18:26:43.925Z,98184.13
2023-05-25T18:29:11.510Z,98176.78
2023-05-25T18:31:39.128Z,98182.16
2023-05-25T18:34:07.364Z,98180.47
2023-05-25T18:36:36.380Z,98186.53
2023-05-25T18:39:04.036Z,98181.78
2023-05-25T18:41:31.916Z,98183.72
2023-05-25T18:43:59.438Z,98178.75
2023-05-25T18:46:28.363Z,98197.72
2023-05-25T18:48:56.532Z,98197.31
2023-05-25T18:51:25.821Z,98194.88
2023-05-25T18:53:54.861Z,98199.66
2023-05-25T18:56:22.744Z,98192.00
2023-05-25T18:58:52.096Z,98200.16
2023-05-25T19:01:19.790Z,98199.16
2023-05-25T19:03:47.502Z,98206.25
2023-05-25T19:06:15.155Z,98207.94
2023-05-25T19:08:42.738Z,98203.03
2023-05-25T19:11:11.654Z,98217.16
2023-05-25T19:13:39.206Z,98215.09
2023-05-25T19:16:07.049Z,98213.31
2023-05-25T19:18:34.562Z,98217.22
2023-05-25T19:21:02.283Z,98219.97
2023-05-25T19:23:29.924Z,98217.28
2023-05-25T19:25:57.456Z,98226.03
2023-05-25T19:28:26.514Z,98220.25
2023-05-25T19:30:54.020Z,98227.91
2023-05-25T19:33:22.518Z,98228.84
2023-05-25T19:35:50.209Z,98226.97
2023-05-25T19:38:17.874Z,98222.84
2023-05-25T19:40:45.683Z,98223.28
2023-05-25T19:43:13.276Z,98233.44
2023-05-25T19:45:42.163Z,98230.94
2023-05-25T19:48:09.818Z,98235.50
2023-05-25T19:50:37.336Z,98240.28
2023-05-25T19:53:04.917Z,98237.63
2023-05-25T19:55:33.665Z,98238.66
2023-05-25T19:58:01.335Z,98237.81
2023-05-25T20:00:29.021Z,98244.44
2023-05-25T20:02:58.011Z,98242.78
2023-05-25T20:05:25.614Z,98248.63
2023-05-25T20:07:53.225Z,98252.16
2023-05-25T20:10:20.941Z,98257.94
2023-05-25T20:12:48.535Z,98257.31
2023-05-25T20:15:16.708Z,98259.59
2023-05-25T20:17:44.321Z,98263.97
2023-05-25T20:20:13.460Z,98265.00
2023-05-25T20:22:41.066Z,98262.97
2023-05-25T20:25:08.887Z,98262.13
2023-05-25T20:27:36.399Z,98277.66
2023-05-25T20:30:03.963Z,98274.91
2023-05-25T20:32:31.493Z,98270.81
2023-05-25T20:34:59.021Z,98278.25
2023-05-25T20:37:27.952Z,98280.34
2023-05-25T20:39:55.565Z,98269.34
2023-05-25T20:42:23.128Z,98278.25
2023-05-25T20:44:50.659Z,98278.25
2023-05-25T20:47:18.382Z,98282.81
2023-05-25T20:49:45.907Z,98280.13
2023-05-25T20:52:13.455Z,98284.25
2023-05-25T20:54:44.707Z,98288.59
2023-05-25T20:57:12.744Z,98283.03
2023-05-25T20:59:40.430Z,98287.53
2023-05-25T21:02:08.568Z,98282.34
2023-05-25T21:04:36.253Z,98286.06
2023-05-25T21:07:03.952Z,98296.84
2023-05-25T21:09:31.479Z,98290.63
2023-05-25T21:12:01.934Z,98294.56
2023-05-25T21:14:29.711Z,98301.59
2023-05-25T21:16:57.249Z,98297.22
2023-05-25T21:19:24.813Z,98301.38
2023-05-25T21:21:52.524Z,98298.69
2023-05-25T21:24:20.150Z,98307.38
2023-05-25T21:26:47.687Z,98309.44
2023-05-25T21:29:16.567Z,98303.00
2023-05-25T21:31:44.201Z,98309.19
2023-05-25T21:34:11.849Z,98307.72
2023-05-25T21:36:39.389Z,98312.91
2023-05-25T21:39:06.900Z,98317.00
2023-05-25T21:41:34.499Z,98310.59
2023-05-25T21:44:02.093Z,98321.06
2023-05-25T21:46:31.026Z,98318.56
2023-05-25T21:48:58.634Z,98324.53
2023-05-25T21:51:26.175Z,98328.41
2023-05-25T21:53:53.753Z,98324.97
2023-05-25T21:56:21.798Z,98335.97
2023-05-25T21:58:49.399Z,98331.66
2023-05-25T22:01:17.106Z,98343.41
2023-05-25T22:03:46.121Z,98333.94
2023-05-25T22:06:13.687Z,98340.53
2023-05-25T22:08:41.973Z,98344.41
2023-05-25T22:11:09.762Z,98347.91
2023-05-25T22:13:37.371Z,98352.34
2023-05-25T22:16:05.026Z,98355.84
2023-05-25T22:18:32.536Z,98355.44
2023-05-25T22:21:01.453Z,98349.25
2023-05-25T22:23:29.152Z,98353.41
2023-05-25T22:25:56.710Z,98353.41
2023-05-25T22:28:24.272Z,98351.84
2023-05-25T22:30:51.871Z,98348.91
2023-05-25T22:33:19.457Z,98344.50
2023-05-25T22:35:47.194Z,98346.00
2023-05-25T22:38:16.182Z,98360.22
2023-05-25T22:40:47.304Z,98353.13
2023-05-25T22:43:15.322Z,98358.09
2023-05-25T22:45:43.019Z,98354.22
2023-05-25T22:48:12.374Z,98359.50
2023-05-25T22:50:40.067Z,98362.66
2023-05-25T22:53:07.642Z,98357.94
2023-05-25T22:55:36.477Z,98355.59
2023-05-25T22:58:04.060Z,98360.25
2023-05-25T23:00:31.944Z,98360.09
2023-05-25T23:03:02.303Z,98359.88
2023-05-25T23:05:31.576Z,98363.94
2023-05-25T23:07:59.586Z,98361.03
2023-05-25T23:10:27.195Z,98361.25
2023-05-25T23:12:56.216Z,98356.38
2023-05-25T23:15:23.848Z,98349.72
2023-05-25T23:17:51.414Z,98358.44
2023-05-25T23:20:19.094Z,98354.00
2023-05-25T23:22:46.737Z,98348.09
2023-05-25T23:25:14.261Z,98351.50
2023-05-25T23:27:41.806Z,98354.22
2023-05-25T23:30:11.587Z,98347.84
2023-05-25T23:32:39.163Z,98354.63
2023-05-25T23:35:07.731Z,98355.34
2023-05-25T23:37:35.707Z,98351.63
2023-05-25T23:40:03.991Z,98354.28
2023-05-25T23:42:38.510Z,98344.94
2023-05-25T23:45:08.127Z,98352.91
2023-05-25T23:47:37.085Z,98349.22
2023-05-25T23:50:05.390Z,98350.06
2023-05-25T23:52:32.892Z,98347.16
2023-05-25T23:55:00.454Z,98350.31
2023-05-25T23:57:28.045Z,98347.75
2023-05-25T23:59:55.614Z,98350.09
